sensor_id;sensor_type;location;lat;lon;timestamp;P1;durP1;ratioP1;P2;durP2;ratioP2
23001;SDS011;11667;51.706;4.856;2022-11-22T00:01:42;28.80;;;13.80;;
23001;SDS011;11667;51.706;4.856;2022-11-22T00:04:11;28.50;;;13.20;;
23001;SDS011;11667;51.706;4.856;2022-11-22T00:06:41;32.75;;;14.28;;
23001;SDS011;11667;51.706;4.856;2022-11-22T00:09:10;31.90;;;13.65;;
23001;SDS011;11667;51.706;4.856;2022-11-22T00:11:39;37.93;;;13.38;;
23001;SDS011;11667;51.706;4.856;2022-11-22T00:14:08;34.00;;;13.98;;
23001;SDS011;11667;51.706;4.856;2022-11-22T00:16:38;37.25;;;13.00;;
23001;SDS011;11667;51.706;4.856;2022-11-22T00:19:07;27.45;;;12.20;;
23001;SDS011;11667;51.706;4.856;2022-11-22T00:21:37;28.32;;;12.00;;
23001;SDS011;11667;51.706;4.856;2022-11-22T00:24:06;26.37;;;11.25;;
23001;SDS011;11667;51.706;4.856;2022-11-22T00:26:35;24.57;;;10.95;;
23001;SDS011;11667;51.706;4.856;2022-11-22T00:29:05;30.72;;;10.70;;
23001;SDS011;11667;51.706;4.856;2022-11-22T00:31:34;29.12;;;9.65;;
23001;SDS011;11667;51.706;4.856;2022-11-22T00:34:03;31.82;;;10.13;;
23001;SDS011;11667;51.706;4.856;2022-11-22T00:36:33;28.62;;;10.03;;
23001;SDS011;11667;51.706;4.856;2022-11-22T00:39:02;25.35;;;9.80;;
23001;SDS011;11667;51.706;4.856;2022-11-22T00:41:32;29.85;;;9.68;;
23001;SDS011;11667;51.706;4.856;2022-11-22T00:44:01;22.60;;;8.58;;
23001;SDS011;11667;51.706;4.856;2022-11-22T00:46:30;25.27;;;8.75;;
23001;SDS011;11667;51.706;4.856;2022-11-22T00:49:00;23.67;;;8.23;;
23001;SDS011;11667;51.706;4.856;2022-11-22T00:51:30;23.52;;;8.20;;
23001;SDS011;11667;51.706;4.856;2022-11-22T00:53:59;22.02;;;7.97;;
23001;SDS011;11667;51.706;4.856;2022-11-22T00:56:28;26.82;;;7.92;;
23001;SDS011;11667;51.706;4.856;2022-11-22T00:58:58;25.72;;;7.70;;
23001;SDS011;11667;51.706;4.856;2022-11-22T01:01:28;19.25;;;7.10;;
23001;SDS011;11667;51.706;4.856;2022-11-22T01:03:57;24.47;;;7.20;;
23001;SDS011;11667;51.706;4.856;2022-11-22T01:06:26;29.10;;;7.53;;
23001;SDS011;11667;51.706;4.856;2022-11-22T01:08:56;21.33;;;6.80;;
23001;SDS011;11667;51.706;4.856;2022-11-22T01:11:25;23.67;;;6.90;;
23001;SDS011;11667;51.706;4.856;2022-11-22T01:13:54;24.70;;;7.03;;
23001;SDS011;11667;51.706;4.856;2022-11-22T01:16:24;20.23;;;7.17;;
23001;SDS011;11667;51.706;4.856;2022-11-22T01:18:53;21.27;;;6.55;;
23001;SDS011;11667;51.706;4.856;2022-11-22T01:21:23;26.62;;;6.58;;
23001;SDS011;11667;51.706;4.856;2022-11-22T01:23:52;21.82;;;6.22;;
23001;SDS011;11667;51.706;4.856;2022-11-22T01:26:21;24.00;;;6.60;;
23001;SDS011;11667;51.706;4.856;2022-11-22T01:28:50;24.55;;;6.62;;
23001;SDS011;11667;51.706;4.856;2022-11-22T01:31:20;21.90;;;6.50;;
23001;SDS011;11667;51.706;4.856;2022-11-22T01:33:49;33.20;;;7.05;;
23001;SDS011;11667;51.706;4.856;2022-11-22T01:36:18;28.42;;;6.85;;
23001;SDS011;11667;51.706;4.856;2022-11-22T01:38:48;23.92;;;6.62;;
23001;SDS011;11667;51.706;4.856;2022-11-22T01:41:17;25.10;;;6.30;;
23001;SDS011;11667;51.706;4.856;2022-11-22T01:43:47;16.95;;;5.90;;
23001;SDS011;11667;51.706;4.856;2022-11-22T01:46:29;32.00;;;6.75;;
23001;SDS011;11667;51.706;4.856;2022-11-22T01:49:02;23.12;;;5.87;;
23001;SDS011;11667;51.706;4.856;2022-11-22T01:51:40;28.50;;;6.12;;
23001;SDS011;11667;51.706;4.856;2022-11-22T01:54:16;26.10;;;5.90;;
23001;SDS011;11667;51.706;4.856;2022-11-22T01:56:45;26.35;;;6.25;;
23001;SDS011;11667;51.706;4.856;2022-11-22T02:01:46;25.82;;;6.00;;
23001;SDS011;11667;51.706;4.856;2022-11-22T02:04:16;24.98;;;5.62;;
23001;SDS011;11667;51.706;4.856;2022-11-22T02:09:19;26.27;;;5.53;;
23001;SDS011;11667;51.706;4.856;2022-11-22T02:11:52;25.70;;;5.22;;
23001;SDS011;11667;51.706;4.856;2022-11-22T02:14:24;22.48;;;5.08;;
23001;SDS011;11667;51.706;4.856;2022-11-22T02:16:53;29.02;;;4.87;;
23001;SDS011;11667;51.706;4.856;2022-11-22T02:19:32;22.67;;;4.15;;
23001;SDS011;11667;51.706;4.856;2022-11-22T02:25:18;25.75;;;4.70;;
23001;SDS011;11667;51.706;4.856;2022-11-22T02:27:36;23.70;;;4.47;;
23001;SDS011;11667;51.706;4.856;2022-11-22T02:30:06;24.57;;;4.25;;
23001;SDS011;11667;51.706;4.856;2022-11-22T02:32:35;25.75;;;4.80;;
23001;SDS011;11667;51.706;4.856;2022-11-22T02:35:18;23.80;;;4.50;;
23001;SDS011;11667;51.706;4.856;2022-11-22T02:37:50;27.55;;;5.55;;
23001;SDS011;11667;51.706;4.856;2022-11-22T02:40:28;20.43;;;3.95;;
23001;SDS011;11667;51.706;4.856;2022-11-22T02:43:03;26.75;;;4.55;;
23001;SDS011;11667;51.706;4.856;2022-11-22T02:45:33;24.77;;;4.35;;
23001;SDS011;11667;51.706;4.856;2022-11-22T02:48:03;24.55;;;4.12;;
23001;SDS011;11667;51.706;4.856;2022-11-22T02:50:34;25.52;;;3.95;;
23001;SDS011;11667;51.706;4.856;2022-11-22T02:53:03;24.30;;;3.98;;
23001;SDS011;11667;51.706;4.856;2022-11-22T02:55:33;17.65;;;4.30;;
23001;SDS011;11667;51.706;4.856;2022-11-22T02:58:02;24.95;;;3.85;;
23001;SDS011;11667;51.706;4.856;2022-11-22T03:03:05;30.35;;;4.42;;
23001;SDS011;11667;51.706;4.856;2022-11-22T03:05:34;21.00;;;3.60;;
23001;SDS011;11667;51.706;4.856;2022-11-22T03:08:04;19.67;;;3.33;;
23001;SDS011;11667;51.706;4.856;2022-11-22T03:10:33;18.70;;;3.85;;
23001;SDS011;11667;51.706;4.856;2022-11-22T03:13:03;25.20;;;3.90;;
23001;SDS011;11667;51.706;4.856;2022-11-22T03:15:32;21.42;;;3.72;;
23001;SDS011;11667;51.706;4.856;2022-11-22T03:18:02;22.17;;;3.33;;
23001;SDS011;11667;51.706;4.856;2022-11-22T03:20:32;24.80;;;3.80;;
23001;SDS011;11667;51.706;4.856;2022-11-22T03:23:01;21.00;;;3.62;;
23001;SDS011;11667;51.706;4.856;2022-11-22T03:25:30;26.20;;;3.98;;
23001;SDS011;11667;51.706;4.856;2022-11-22T03:28:00;27.75;;;3.83;;
23001;SDS011;11667;51.706;4.856;2022-11-22T03:30:29;23.95;;;3.95;;
23001;SDS011;11667;51.706;4.856;2022-11-22T03:32:59;21.52;;;3.83;;
23001;SDS011;11667;51.706;4.856;2022-11-22T03:35:28;14.98;;;2.90;;
23001;SDS011;11667;51.706;4.856;2022-11-22T03:37:57;22.62;;;3.62;;
23001;SDS011;11667;51.706;4.856;2022-11-22T03:40:27;24.27;;;3.45;;
23001;SDS011;11667;51.706;4.856;2022-11-22T03:43:00;22.13;;;3.50;;
23001;SDS011;11667;51.706;4.856;2022-11-22T03:45:30;15.98;;;4.15;;
23001;SDS011;11667;51.706;4.856;2022-11-22T03:47:59;27.67;;;3.62;;
23001;SDS011;11667;51.706;4.856;2022-11-22T03:50:29;18.42;;;3.40;;
23001;SDS011;11667;51.706;4.856;2022-11-22T03:52:59;18.50;;;3.30;;
23001;SDS011;11667;51.706;4.856;2022-11-22T03:55:28;26.35;;;3.83;;
23001;SDS011;11667;51.706;4.856;2022-11-22T03:57:58;21.02;;;3.08;;
23001;SDS011;11667;51.706;4.856;2022-11-22T04:00:27;21.40;;;3.42;;
23001;SDS011;11667;51.706;4.856;2022-11-22T04:02:56;25.48;;;3.95;;
23001;SDS011;11667;51.706;4.856;2022-11-22T04:05:26;22.17;;;3.25;;
23001;SDS011;11667;51.706;4.856;2022-11-22T04:07:55;18.73;;;3.55;;
23001;SDS011;11667;51.706;4.856;2022-11-22T04:10:25;18.52;;;3.25;;
23001;SDS011;11667;51.706;4.856;2022-11-22T04:12:57;17.73;;;3.27;;
23001;SDS011;11667;51.706;4.856;2022-11-22T04:17:55;16.57;;;3.20;;
23001;SDS011;11667;51.706;4.856;2022-11-22T04:20:25;19.50;;;3.58;;
23001;SDS011;11667;51.706;4.856;2022-11-22T04:23:15;18.67;;;3.40;;
23001;SDS011;11667;51.706;4.856;2022-11-22T04:25:47;20.57;;;3.55;;
23001;SDS011;11667;51.706;4.856;2022-11-22T04:28:19;15.35;;;3.15;;
23001;SDS011;11667;51.706;4.856;2022-11-22T04:30:52;19.67;;;3.45;;
23001;SDS011;11667;51.706;4.856;2022-11-22T04:33:39;15.43;;;3.02;;
23001;SDS011;11667;51.706;4.856;2022-11-22T04:36:08;16.73;;;3.37;;
23001;SDS011;11667;51.706;4.856;2022-11-22T04:38:40;16.20;;;2.95;;
23001;SDS011;11667;51.706;4.856;2022-11-22T04:41:09;11.95;;;3.42;;
23001;SDS011;11667;51.706;4.856;2022-11-22T04:43:38;13.65;;;3.25;;
23001;SDS011;11667;51.706;4.856;2022-11-22T04:46:25;15.20;;;3.30;;
23001;SDS011;11667;51.706;4.856;2022-11-22T04:48:56;17.57;;;3.12;;
23001;SDS011;11667;51.706;4.856;2022-11-22T04:51:26;17.27;;;3.00;;
23001;SDS011;11667;51.706;4.856;2022-11-22T04:54:13;14.68;;;3.00;;
23001;SDS011;11667;51.706;4.856;2022-11-22T04:56:42;16.52;;;2.90;;
23001;SDS011;11667;51.706;4.856;2022-11-22T04:59:11;17.37;;;3.85;;
23001;SDS011;11667;51.706;4.856;2022-11-22T05:01:41;18.20;;;2.67;;
23001;SDS011;11667;51.706;4.856;2022-11-22T05:04:10;18.75;;;3.00;;
23001;SDS011;11667;51.706;4.856;2022-11-22T05:06:39;15.88;;;3.00;;
23001;SDS011;11667;51.706;4.856;2022-11-22T05:09:09;15.35;;;2.75;;
23001;SDS011;11667;51.706;4.856;2022-11-22T05:11:38;18.67;;;2.92;;
23001;SDS011;11667;51.706;4.856;2022-11-22T05:14:08;12.37;;;2.98;;
23001;SDS011;11667;51.706;4.856;2022-11-22T05:16:37;11.68;;;2.47;;
23001;SDS011;11667;51.706;4.856;2022-11-22T05:19:07;15.90;;;3.20;;
23001;SDS011;11667;51.706;4.856;2022-11-22T05:21:36;20.15;;;3.17;;
23001;SDS011;11667;51.706;4.856;2022-11-22T05:24:06;12.82;;;2.52;;
23001;SDS011;11667;51.706;4.856;2022-11-22T05:26:35;15.70;;;2.90;;
23001;SDS011;11667;51.706;4.856;2022-11-22T05:29:05;18.10;;;3.50;;
23001;SDS011;11667;51.706;4.856;2022-11-22T05:31:36;14.95;;;3.27;;
23001;SDS011;11667;51.706;4.856;2022-11-22T05:34:06;17.40;;;3.08;;
23001;SDS011;11667;51.706;4.856;2022-11-22T05:36:36;12.53;;;2.77;;
23001;SDS011;11667;51.706;4.856;2022-11-22T05:39:05;13.55;;;2.87;;
23001;SDS011;11667;51.706;4.856;2022-11-22T05:41:34;17.35;;;3.50;;
23001;SDS011;11667;51.706;4.856;2022-11-22T05:44:04;18.30;;;3.47;;
23001;SDS011;11667;51.706;4.856;2022-11-22T05:46:33;11.83;;;3.17;;
23001;SDS011;11667;51.706;4.856;2022-11-22T05:49:03;14.87;;;3.50;;
23001;SDS011;11667;51.706;4.856;2022-11-22T05:51:32;16.07;;;3.90;;
23001;SDS011;11667;51.706;4.856;2022-11-22T05:54:02;21.90;;;4.37;;
23001;SDS011;11667;51.706;4.856;2022-11-22T05:56:31;17.57;;;3.80;;
23001;SDS011;11667;51.706;4.856;2022-11-22T05:59:00;13.55;;;3.12;;
23001;SDS011;11667;51.706;4.856;2022-11-22T06:01:30;15.70;;;3.40;;
23001;SDS011;11667;51.706;4.856;2022-11-22T06:03:59;15.15;;;3.42;;
23001;SDS011;11667;51.706;4.856;2022-11-22T06:06:29;16.02;;;3.27;;
23001;SDS011;11667;51.706;4.856;2022-11-22T06:08:59;12.75;;;3.20;;
23001;SDS011;11667;51.706;4.856;2022-11-22T06:11:28;18.92;;;3.52;;
23001;SDS011;11667;51.706;4.856;2022-11-22T06:13:58;17.27;;;3.50;;
23001;SDS011;11667;51.706;4.856;2022-11-22T06:16:31;11.93;;;3.22;;
23001;SDS011;11667;51.706;4.856;2022-11-22T06:19:00;17.07;;;3.65;;
23001;SDS011;11667;51.706;4.856;2022-11-22T06:21:30;13.35;;;3.72;;
23001;SDS011;11667;51.706;4.856;2022-11-22T06:23:59;16.75;;;3.92;;
23001;SDS011;11667;51.706;4.856;2022-11-22T06:26:28;16.42;;;3.65;;
23001;SDS011;11667;51.706;4.856;2022-11-22T06:28:59;17.20;;;3.62;;
23001;SDS011;11667;51.706;4.856;2022-11-22T06:31:29;15.50;;;3.22;;
23001;SDS011;11667;51.706;4.856;2022-11-22T06:33:59;19.40;;;3.65;;
23001;SDS011;11667;51.706;4.856;2022-11-22T06:36:29;15.18;;;3.20;;
23001;SDS011;11667;51.706;4.856;2022-11-22T06:39:00;11.78;;;3.37;;
23001;SDS011;11667;51.706;4.856;2022-11-22T06:41:34;16.07;;;3.62;;
23001;SDS011;11667;51.706;4.856;2022-11-22T06:44:05;14.87;;;3.42;;
23001;SDS011;11667;51.706;4.856;2022-11-22T06:46:35;12.68;;;3.25;;
23001;SDS011;11667;51.706;4.856;2022-11-22T06:49:05;13.98;;;3.37;;
23001;SDS011;11667;51.706;4.856;2022-11-22T06:51:34;15.60;;;3.67;;
23001;SDS011;11667;51.706;4.856;2022-11-22T06:54:04;15.72;;;3.50;;
23001;SDS011;11667;51.706;4.856;2022-11-22T06:56:37;16.35;;;3.92;;
23001;SDS011;11667;51.706;4.856;2022-11-22T06:59:08;15.25;;;3.45;;
23001;SDS011;11667;51.706;4.856;2022-11-22T07:01:37;13.22;;;3.52;;
23001;SDS011;11667;51.706;4.856;2022-11-22T07:04:07;13.72;;;3.40;;
23001;SDS011;11667;51.706;4.856;2022-11-22T07:06:37;13.83;;;3.17;;
23001;SDS011;11667;51.706;4.856;2022-11-22T07:09:08;16.32;;;3.33;;
23001;SDS011;11667;51.706;4.856;2022-11-22T07:11:38;11.53;;;3.30;;
23001;SDS011;11667;51.706;4.856;2022-11-22T07:14:08;11.75;;;3.17;;
23001;SDS011;11667;51.706;4.856;2022-11-22T07:16:37;18.00;;;3.42;;
23001;SDS011;11667;51.706;4.856;2022-11-22T07:19:07;14.85;;;4.03;;
23001;SDS011;11667;51.706;4.856;2022-11-22T07:21:36;11.55;;;3.33;;
23001;SDS011;11667;51.706;4.856;2022-11-22T07:24:06;14.93;;;3.70;;
23001;SDS011;11667;51.706;4.856;2022-11-22T07:26:35;13.28;;;3.58;;
23001;SDS011;11667;51.706;4.856;2022-11-22T07:29:05;12.25;;;3.20;;
23001;SDS011;11667;51.706;4.856;2022-11-22T07:31:34;15.98;;;3.35;;
23001;SDS011;11667;51.706;4.856;2022-11-22T07:34:03;20.62;;;3.87;;
23001;SDS011;11667;51.706;4.856;2022-11-22T07:36:33;17.50;;;3.92;;
23001;SDS011;11667;51.706;4.856;2022-11-22T07:39:02;15.80;;;3.30;;
23001;SDS011;11667;51.706;4.856;2022-11-22T07:41:32;14.13;;;3.75;;
23001;SDS011;11667;51.706;4.856;2022-11-22T07:44:01;13.25;;;3.80;;
23001;SDS011;11667;51.706;4.856;2022-11-22T07:46:30;18.92;;;4.25;;
23001;SDS011;11667;51.706;4.856;2022-11-22T07:49:00;14.63;;;4.33;;
23001;SDS011;11667;51.706;4.856;2022-11-22T07:51:29;16.17;;;4.40;;
23001;SDS011;11667;51.706;4.856;2022-11-22T07:53:59;16.30;;;4.65;;
23001;SDS011;11667;51.706;4.856;2022-11-22T07:56:28;23.05;;;4.70;;
23001;SDS011;11667;51.706;4.856;2022-11-22T07:58:58;19.77;;;5.47;;
23001;SDS011;11667;51.706;4.856;2022-11-22T08:01:27;13.95;;;4.58;;
23001;SDS011;11667;51.706;4.856;2022-11-22T08:03:57;15.32;;;4.30;;
23001;SDS011;11667;51.706;4.856;2022-11-22T08:06:26;15.13;;;4.58;;
23001;SDS011;11667;51.706;4.856;2022-11-22T08:08:55;11.40;;;4.25;;
23001;SDS011;11667;51.706;4.856;2022-11-22T08:11:26;11.33;;;4.58;;
23001;SDS011;11667;51.706;4.856;2022-11-22T08:13:55;17.92;;;4.58;;
23001;SDS011;11667;51.706;4.856;2022-11-22T08:16:25;15.50;;;4.45;;
23001;SDS011;11667;51.706;4.856;2022-11-22T08:18:54;21.80;;;4.65;;
23001;SDS011;11667;51.706;4.856;2022-11-22T08:21:23;15.53;;;5.05;;
23001;SDS011;11667;51.706;4.856;2022-11-22T08:23:56;12.03;;;4.50;;
23001;SDS011;11667;51.706;4.856;2022-11-22T08:26:27;15.63;;;4.97;;
23001;SDS011;11667;51.706;4.856;2022-11-22T08:28:56;16.00;;;5.12;;
23001;SDS011;11667;51.706;4.856;2022-11-22T08:31:25;13.78;;;4.40;;
23001;SDS011;11667;51.706;4.856;2022-11-22T08:33:55;15.20;;;4.72;;
23001;SDS011;11667;51.706;4.856;2022-11-22T08:36:25;13.25;;;4.70;;
23001;SDS011;11667;51.706;4.856;2022-11-22T08:38:54;16.17;;;4.47;;
23001;SDS011;11667;51.706;4.856;2022-11-22T08:41:24;11.97;;;5.20;;
23001;SDS011;11667;51.706;4.856;2022-11-22T08:43:53;12.07;;;4.97;;
23001;SDS011;11667;51.706;4.856;2022-11-22T08:46:22;12.40;;;4.62;;
23001;SDS011;11667;51.706;4.856;2022-11-22T08:48:52;13.48;;;4.37;;
23001;SDS011;11667;51.706;4.856;2022-11-22T08:51:21;12.75;;;4.00;;
23001;SDS011;11667;51.706;4.856;2022-11-22T08:53:50;13.00;;;4.47;;
23001;SDS011;11667;51.706;4.856;2022-11-22T08:56:20;13.48;;;4.55;;
23001;SDS011;11667;51.706;4.856;2022-11-22T08:58:49;13.83;;;4.67;;
23001;SDS011;11667;51.706;4.856;2022-11-22T09:01:19;11.80;;;4.30;;
23001;SDS011;11667;51.706;4.856;2022-11-22T09:03:50;14.63;;;4.80;;
23001;SDS011;11667;51.706;4.856;2022-11-22T09:06:19;12.80;;;4.78;;
23001;SDS011;11667;51.706;4.856;2022-11-22T09:08:50;9.20;;;4.58;;
23001;SDS011;11667;51.706;4.856;2022-11-22T09:11:21;13.83;;;4.25;;
23001;SDS011;11667;51.706;4.856;2022-11-22T09:13:51;13.80;;;4.53;;
23001;SDS011;11667;51.706;4.856;2022-11-22T09:16:20;14.63;;;4.62;;
23001;SDS011;11667;51.706;4.856;2022-11-22T09:18:50;15.60;;;4.53;;
23001;SDS011;11667;51.706;4.856;2022-11-22T09:21:19;14.53;;;5.15;;
23001;SDS011;11667;51.706;4.856;2022-11-22T09:23:49;12.40;;;4.30;;
23001;SDS011;11667;51.706;4.856;2022-11-22T09:26:21;9.50;;;4.50;;
23001;SDS011;11667;51.706;4.856;2022-11-22T09:28:51;14.40;;;4.87;;
23001;SDS011;11667;51.706;4.856;2022-11-22T09:31:21;14.55;;;4.90;;
23001;SDS011;11667;51.706;4.856;2022-11-22T09:33:51;9.15;;;3.95;;
23001;SDS011;11667;51.706;4.856;2022-11-22T09:36:21;13.03;;;3.92;;
23001;SDS011;11667;51.706;4.856;2022-11-22T09:44:35;14.38;;;4.35;;
23001;SDS011;11667;51.706;4.856;2022-11-22T09:52:41;12.55;;;4.05;;
23001;SDS011;11667;51.706;4.856;2022-11-22T09:57:55;11.15;;;3.90;;
23001;SDS011;11667;51.706;4.856;2022-11-22T10:00:36;12.88;;;3.70;;
23001;SDS011;11667;51.706;4.856;2022-11-22T10:05:48;14.00;;;4.08;;
23001;SDS011;11667;51.706;4.856;2022-11-22T10:08:26;13.95;;;3.90;;
23001;SDS011;11667;51.706;4.856;2022-11-22T10:11:00;11.00;;;3.55;;
23001;SDS011;11667;51.706;4.856;2022-11-22T10:13:38;9.95;;;3.65;;
23001;SDS011;11667;51.706;4.856;2022-11-22T10:16:15;13.00;;;3.77;;
23001;SDS011;11667;51.706;4.856;2022-11-22T10:19:09;9.10;;;3.47;;
23001;SDS011;11667;51.706;4.856;2022-11-22T10:21:45;8.80;;;3.52;;
23001;SDS011;11667;51.706;4.856;2022-11-22T10:24:15;15.78;;;4.12;;
23001;SDS011;11667;51.706;4.856;2022-11-22T10:26:46;12.58;;;3.80;;
23001;SDS011;11667;51.706;4.856;2022-11-22T10:37:37;10.88;;;3.90;;
23001;SDS011;11667;51.706;4.856;2022-11-22T10:40:16;11.55;;;3.33;;
23001;SDS011;11667;51.706;4.856;2022-11-22T10:42:52;10.05;;;3.22;;
23001;SDS011;11667;51.706;4.856;2022-11-22T10:54:02;5.55;;;3.00;;
23001;SDS011;11667;51.706;4.856;2022-11-22T10:59:31;10.13;;;3.27;;
23001;SDS011;11667;51.706;4.856;2022-11-22T11:02:02;8.50;;;3.75;;
23001;SDS011;11667;51.706;4.856;2022-11-22T11:04:48;9.55;;;3.12;;
23001;SDS011;11667;51.706;4.856;2022-11-22T11:07:19;8.08;;;3.20;;
23001;SDS011;11667;51.706;4.856;2022-11-22T11:09:53;10.82;;;3.55;;
23001;SDS011;11667;51.706;4.856;2022-11-22T11:12:43;7.65;;;3.80;;
23001;SDS011;11667;51.706;4.856;2022-11-22T11:15:29;9.85;;;3.83;;
23001;SDS011;11667;51.706;4.856;2022-11-22T11:18:10;8.08;;;3.47;;
23001;SDS011;11667;51.706;4.856;2022-11-22T11:20:38;10.68;;;4.30;;
23001;SDS011;11667;51.706;4.856;2022-11-22T11:23:09;12.85;;;4.65;;
23001;SDS011;11667;51.706;4.856;2022-11-22T11:25:41;8.15;;;3.70;;
23001;SDS011;11667;51.706;4.856;2022-11-22T11:28:21;11.38;;;4.00;;
23001;SDS011;11667;51.706;4.856;2022-11-22T11:33:27;9.88;;;3.77;;
23001;SDS011;11667;51.706;4.856;2022-11-22T11:41:17;9.90;;;3.22;;
23001;SDS011;11667;51.706;4.856;2022-11-22T11:43:52;5.67;;;3.17;;
23001;SDS011;11667;51.706;4.856;2022-11-22T11:46:26;6.70;;;3.35;;
23001;SDS011;11667;51.706;4.856;2022-11-22T11:49:16;10.25;;;3.20;;
23001;SDS011;11667;51.706;4.856;2022-11-22T11:51:47;7.47;;;3.05;;
23001;SDS011;11667;51.706;4.856;2022-11-22T11:54:22;9.33;;;3.40;;
23001;SDS011;11667;51.706;4.856;2022-11-22T11:56:57;8.40;;;3.47;;
23001;SDS011;11667;51.706;4.856;2022-11-22T11:59:31;7.70;;;3.17;;
23001;SDS011;11667;51.706;4.856;2022-11-22T12:05:01;5.60;;;2.77;;
23001;SDS011;11667;51.706;4.856;2022-11-22T12:07:19;9.78;;;2.92;;
23001;SDS011;11667;51.706;4.856;2022-11-22T12:09:57;9.63;;;2.60;;
23001;SDS011;11667;51.706;4.856;2022-11-22T12:12:30;6.72;;;2.72;;
23001;SDS011;11667;51.706;4.856;2022-11-22T12:18:01;7.60;;;2.75;;
23001;SDS011;11667;51.706;4.856;2022-11-22T12:20:53;7.75;;;2.70;;
23001;SDS011;11667;51.706;4.856;2022-11-22T12:26:14;7.60;;;2.90;;
23001;SDS011;11667;51.706;4.856;2022-11-22T12:28:43;4.62;;;2.30;;
23001;SDS011;11667;51.706;4.856;2022-11-22T12:34:24;4.72;;;2.10;;
23001;SDS011;11667;51.706;4.856;2022-11-22T12:39:37;5.80;;;2.20;;
23001;SDS011;11667;51.706;4.856;2022-11-22T12:42:10;6.90;;;2.45;;
23001;SDS011;11667;51.706;4.856;2022-11-22T12:44:57;5.00;;;2.05;;
23001;SDS011;11667;51.706;4.856;2022-11-22T12:47:42;5.20;;;1.82;;
23001;SDS011;11667;51.706;4.856;2022-11-22T12:50:23;5.08;;;2.25;;
23001;SDS011;11667;51.706;4.856;2022-11-22T12:53:04;6.42;;;1.90;;
23001;SDS011;11667;51.706;4.856;2022-11-22T12:55:28;5.12;;;2.00;;
23001;SDS011;11667;51.706;4.856;2022-11-22T12:58:02;4.72;;;2.30;;
23001;SDS011;11667;51.706;4.856;2022-11-22T13:00:33;5.78;;;2.15;;
23001;SDS011;11667;51.706;4.856;2022-11-22T13:05:51;4.58;;;2.05;;
23001;SDS011;11667;51.706;4.856;2022-11-22T13:08:32;3.20;;;2.10;;
23001;SDS011;11667;51.706;4.856;2022-11-22T13:11:20;5.60;;;2.10;;
23001;SDS011;11667;51.706;4.856;2022-11-22T13:13:59;3.95;;;1.98;;
23001;SDS011;11667;51.706;4.856;2022-11-22T13:16:29;4.12;;;1.80;;
23001;SDS011;11667;51.706;4.856;2022-11-22T13:19:04;2.17;;;1.60;;
23001;SDS011;11667;51.706;4.856;2022-11-22T13:24:28;3.10;;;1.80;;
23001;SDS011;11667;51.706;4.856;2022-11-22T13:29:32;4.85;;;1.67;;
23001;SDS011;11667;51.706;4.856;2022-11-22T13:32:03;5.35;;;1.90;;
23001;SDS011;11667;51.706;4.856;2022-11-22T13:34:41;3.92;;;1.80;;
23001;SDS011;11667;51.706;4.856;2022-11-22T13:37:28;4.17;;;1.98;;
23001;SDS011;11667;51.706;4.856;2022-11-22T13:42:47;4.87;;;2.10;;
23001;SDS011;11667;51.706;4.856;2022-11-22T13:45:19;3.80;;;1.90;;
23001;SDS011;11667;51.706;4.856;2022-11-22T13:47:50;4.72;;;2.10;;
23001;SDS011;11667;51.706;4.856;2022-11-22T13:53:26;3.00;;;2.00;;
23001;SDS011;11667;51.706;4.856;2022-11-22T13:56:07;4.80;;;1.70;;
23001;SDS011;11667;51.706;4.856;2022-11-22T14:06:49;4.78;;;1.92;;
23001;SDS011;11667;51.706;4.856;2022-11-22T14:09:27;4.03;;;2.05;;
23001;SDS011;11667;51.706;4.856;2022-11-22T14:12:01;3.85;;;1.95;;
23001;SDS011;11667;51.706;4.856;2022-11-22T14:17:26;4.55;;;2.30;;
23001;SDS011;11667;51.706;4.856;2022-11-22T14:26:08;3.27;;;2.08;;
23001;SDS011;11667;51.706;4.856;2022-11-22T14:53:01;3.62;;;2.40;;
23001;SDS011;11667;51.706;4.856;2022-11-22T14:55:33;3.47;;;2.30;;
23001;SDS011;11667;51.706;4.856;2022-11-22T14:58:04;4.65;;;2.50;;
23001;SDS011;11667;51.706;4.856;2022-11-22T15:03:34;5.62;;;2.90;;
23001;SDS011;11667;51.706;4.856;2022-11-22T15:06:00;4.95;;;2.65;;
23001;SDS011;11667;51.706;4.856;2022-11-22T15:08:42;5.45;;;2.60;;
23001;SDS011;11667;51.706;4.856;2022-11-22T15:16:52;4.12;;;2.80;;
23001;SDS011;11667;51.706;4.856;2022-11-22T15:19:33;3.42;;;2.67;;
23001;SDS011;11667;51.706;4.856;2022-11-22T15:24:47;3.37;;;2.90;;
23001;SDS011;11667;51.706;4.856;2022-11-22T15:27:30;4.42;;;3.20;;
23001;SDS011;11667;51.706;4.856;2022-11-22T15:30:11;5.78;;;3.47;;
23001;SDS011;11667;51.706;4.856;2022-11-22T15:32:43;5.62;;;3.60;;
23001;SDS011;11667;51.706;4.856;2022-11-22T15:35:22;4.33;;;3.50;;
23001;SDS011;11667;51.706;4.856;2022-11-22T15:37:55;5.25;;;3.90;;
23001;SDS011;11667;51.706;4.856;2022-11-22T15:40:34;5.85;;;4.30;;
23001;SDS011;11667;51.706;4.856;2022-11-22T15:43:11;6.10;;;4.25;;
23001;SDS011;11667;51.706;4.856;2022-11-22T15:45:43;6.05;;;4.58;;
23001;SDS011;11667;51.706;4.856;2022-11-22T15:48:21;8.87;;;5.27;;
23001;SDS011;11667;51.706;4.856;2022-11-22T15:50:59;11.20;;;6.08;;
23001;SDS011;11667;51.706;4.856;2022-11-22T15:53:35;9.43;;;6.35;;
23001;SDS011;11667;51.706;4.856;2022-11-22T15:56:16;6.55;;;5.40;;
23001;SDS011;11667;51.706;4.856;2022-11-22T15:58:54;8.75;;;5.95;;
23001;SDS011;11667;51.706;4.856;2022-11-22T16:01:24;7.87;;;6.58;;
23001;SDS011;11667;51.706;4.856;2022-11-22T16:03:57;8.50;;;6.87;;
23001;SDS011;11667;51.706;4.856;2022-11-22T16:06:27;11.18;;;7.15;;
23001;SDS011;11667;51.706;4.856;2022-11-22T16:08:58;9.80;;;6.67;;
23001;SDS011;11667;51.706;4.856;2022-11-22T16:11:34;8.23;;;6.62;;
23001;SDS011;11667;51.706;4.856;2022-11-22T16:14:01;10.40;;;7.10;;
23001;SDS011;11667;51.706;4.856;2022-11-22T16:16:33;11.63;;;7.62;;
23001;SDS011;11667;51.706;4.856;2022-11-22T16:19:13;9.18;;;7.20;;
23001;SDS011;11667;51.706;4.856;2022-11-22T16:21:55;8.35;;;6.67;;
23001;SDS011;11667;51.706;4.856;2022-11-22T16:24:30;9.78;;;7.30;;
23001;SDS011;11667;51.706;4.856;2022-11-22T16:26:57;8.88;;;6.85;;
23001;SDS011;11667;51.706;4.856;2022-11-22T16:29:29;9.68;;;6.85;;
23001;SDS011;11667;51.706;4.856;2022-11-22T16:32:03;8.28;;;6.55;;
23001;SDS011;11667;51.706;4.856;2022-11-22T16:34:35;11.78;;;6.67;;
23001;SDS011;11667;51.706;4.856;2022-11-22T16:37:29;10.50;;;6.60;;
23001;SDS011;11667;51.706;4.856;2022-11-22T16:39:56;8.20;;;6.58;;
23001;SDS011;11667;51.706;4.856;2022-11-22T16:42:25;9.55;;;6.65;;
23001;SDS011;11667;51.706;4.856;2022-11-22T16:44:54;9.75;;;6.47;;
23001;SDS011;11667;51.706;4.856;2022-11-22T16:47:26;11.05;;;6.87;;
23001;SDS011;11667;51.706;4.856;2022-11-22T16:49:55;10.30;;;6.15;;
23001;SDS011;11667;51.706;4.856;2022-11-22T16:52:24;8.30;;;6.10;;
23001;SDS011;11667;51.706;4.856;2022-11-22T16:54:53;11.90;;;6.70;;
23001;SDS011;11667;51.706;4.856;2022-11-22T16:57:23;8.18;;;6.58;;
23001;SDS011;11667;51.706;4.856;2022-11-22T16:59:52;9.53;;;7.10;;
23001;SDS011;11667;51.706;4.856;2022-11-22T17:02:21;8.35;;;6.10;;
23001;SDS011;11667;51.706;4.856;2022-11-22T17:04:51;10.20;;;6.45;;
23001;SDS011;11667;51.706;4.856;2022-11-22T17:07:20;10.50;;;6.55;;
23001;SDS011;11667;51.706;4.856;2022-11-22T17:09:50;9.55;;;6.60;;
23001;SDS011;11667;51.706;4.856;2022-11-22T17:12:24;9.10;;;6.33;;
23001;SDS011;11667;51.706;4.856;2022-11-22T17:14:56;8.50;;;6.47;;
23001;SDS011;11667;51.706;4.856;2022-11-22T17:17:25;8.60;;;6.75;;
23001;SDS011;11667;51.706;4.856;2022-11-22T17:19:55;10.18;;;7.00;;
23001;SDS011;11667;51.706;4.856;2022-11-22T17:22:24;9.88;;;6.65;;
23001;SDS011;11667;51.706;4.856;2022-11-22T17:24:54;9.80;;;6.80;;